sensor_id;sensor_type;location;lat;lon;timestamp;P1;durP1;ratioP1;P2;durP2;ratioP2
50733;SDS011;36701;51.798;19.474;2022-12-20T00:00:58;24.67;;;9.15;;
50733;SDS011;36701;51.798;19.474;2022-12-20T00:03:24;22.83;;;8.68;;
50733;SDS011;36701;51.798;19.474;2022-12-20T00:05:51;16.73;;;8.75;;
50733;SDS011;36701;51.798;19.474;2022-12-20T00:08:17;19.42;;;8.40;;
50733;SDS011;36701;51.798;19.474;2022-12-20T00:10:44;23.42;;;8.95;;
50733;SDS011;36701;51.798;19.474;2022-12-20T00:13:10;19.10;;;8.63;;
50733;SDS011;36701;51.798;19.474;2022-12-20T00:15:38;24.00;;;9.82;;
50733;SDS011;36701;51.798;19.474;2022-12-20T00:18:04;12.77;;;6.00;;
50733;SDS011;36701;51.798;19.474;2022-12-20T00:20:31;23.55;;;9.48;;
50733;SDS011;36701;51.798;19.474;2022-12-20T00:22:57;18.33;;;7.25;;
50733;SDS011;36701;51.798;19.474;2022-12-20T00:25:24;22.73;;;9.75;;
50733;SDS011;36701;51.798;19.474;2022-12-20T00:27:50;24.00;;;10.77;;
50733;SDS011;36701;51.798;19.474;2022-12-20T00:30:17;22.20;;;9.30;;
50733;SDS011;36701;51.798;19.474;2022-12-20T00:32:43;26.87;;;11.25;;
50733;SDS011;36701;51.798;19.474;2022-12-20T00:35:11;19.77;;;8.70;;
50733;SDS011;36701;51.798;19.474;2022-12-20T00:37:37;22.77;;;8.57;;
50733;SDS011;36701;51.798;19.474;2022-12-20T00:40:04;23.92;;;9.02;;
50733;SDS011;36701;51.798;19.474;2022-12-20T00:42:31;21.37;;;10.07;;
50733;SDS011;36701;51.798;19.474;2022-12-20T00:44:58;28.15;;;12.60;;
50733;SDS011;36701;51.798;19.474;2022-12-20T00:47:24;11.20;;;5.95;;
50733;SDS011;36701;51.798;19.474;2022-12-20T00:49:51;21.85;;;9.02;;
50733;SDS011;36701;51.798;19.474;2022-12-20T00:52:17;16.37;;;8.55;;
50733;SDS011;36701;51.798;19.474;2022-12-20T00:54:44;26.90;;;10.68;;
50733;SDS011;36701;51.798;19.474;2022-12-20T00:57:10;20.30;;;8.80;;
50733;SDS011;36701;51.798;19.474;2022-12-20T00:59:37;33.53;;;11.75;;
50733;SDS011;36701;51.798;19.474;2022-12-20T03:00:16;28.27;;;9.23;;
50733;SDS011;36701;51.798;19.474;2022-12-20T03:02:46;22.40;;;10.27;;
50733;SDS011;36701;51.798;19.474;2022-12-20T03:05:33;15.35;;;7.93;;
50733;SDS011;36701;51.798;19.474;2022-12-20T03:08:04;27.30;;;10.65;;
50733;SDS011;36701;51.798;19.474;2022-12-20T03:10:30;24.23;;;9.80;;
50733;SDS011;36701;51.798;19.474;2022-12-20T03:12:57;10.18;;;5.97;;
50733;SDS011;36701;51.798;19.474;2022-12-20T03:15:24;24.05;;;9.07;;
50733;SDS011;36701;51.798;19.474;2022-12-20T03:17:51;31.83;;;11.48;;
50733;SDS011;36701;51.798;19.474;2022-12-20T03:20:17;16.83;;;7.80;;
50733;SDS011;36701;51.798;19.474;2022-12-20T03:22:44;9.43;;;3.70;;
50733;SDS011;36701;51.798;19.474;2022-12-20T03:25:10;18.23;;;8.25;;
50733;SDS011;36701;51.798;19.474;2022-12-20T03:27:37;26.80;;;10.63;;
50733;SDS011;36701;51.798;19.474;2022-12-20T03:30:04;18.25;;;7.50;;
50733;SDS011;36701;51.798;19.474;2022-12-20T03:32:31;16.48;;;7.50;;
50733;SDS011;36701;51.798;19.474;2022-12-20T03:35:05;31.23;;;11.80;;
50733;SDS011;36701;51.798;19.474;2022-12-20T03:37:33;27.85;;;9.15;;
50733;SDS011;36701;51.798;19.474;2022-12-20T03:40:00;23.92;;;10.55;;
50733;SDS011;36701;51.798;19.474;2022-12-20T03:42:26;19.15;;;8.38;;
50733;SDS011;36701;51.798;19.474;2022-12-20T03:44:53;27.25;;;10.05;;
50733;SDS011;36701;51.798;19.474;2022-12-20T03:47:19;18.37;;;9.65;;
50733;SDS011;36701;51.798;19.474;2022-12-20T03:49:46;21.95;;;9.40;;
50733;SDS011;36701;51.798;19.474;2022-12-20T03:52:13;23.83;;;10.15;;
50733;SDS011;36701;51.798;19.474;2022-12-20T03:54:40;19.55;;;8.75;;
50733;SDS011;36701;51.798;19.474;2022-12-20T03:57:07;15.30;;;7.82;;
50733;SDS011;36701;51.798;19.474;2022-12-20T03:59:34;21.35;;;8.30;;
50733;SDS011;36701;51.798;19.474;2022-12-20T04:02:02;25.52;;;9.25;;
50733;SDS011;36701;51.798;19.474;2022-12-20T04:04:29;13.57;;;6.78;;
50733;SDS011;36701;51.798;19.474;2022-12-20T04:06:56;22.33;;;8.35;;
50733;SDS011;36701;51.798;19.474;2022-12-20T04:09:22;24.23;;;10.27;;
50733;SDS011;36701;51.798;19.474;2022-12-20T04:11:50;20.37;;;7.70;;
50733;SDS011;36701;51.798;19.474;2022-12-20T04:14:16;24.58;;;8.93;;
50733;SDS011;36701;51.798;19.474;2022-12-20T04:16:43;22.52;;;8.95;;
50733;SDS011;36701;51.798;19.474;2022-12-20T04:19:09;22.00;;;9.32;;
50733;SDS011;36701;51.798;19.474;2022-12-20T04:21:37;20.20;;;8.00;;
50733;SDS011;36701;51.798;19.474;2022-12-20T04:24:04;25.02;;;10.27;;
50733;SDS011;36701;51.798;19.474;2022-12-20T04:26:32;29.98;;;11.30;;
50733;SDS011;36701;51.798;19.474;2022-12-20T04:28:59;24.60;;;10.30;;
50733;SDS011;36701;51.798;19.474;2022-12-20T04:31:25;26.55;;;10.48;;
50733;SDS011;36701;51.798;19.474;2022-12-20T04:33:53;17.62;;;8.57;;
50733;SDS011;36701;51.798;19.474;2022-12-20T04:36:20;18.30;;;8.20;;
50733;SDS011;36701;51.798;19.474;2022-12-20T04:38:47;26.02;;;11.20;;
50733;SDS011;36701;51.798;19.474;2022-12-20T04:41:14;19.45;;;9.05;;
50733;SDS011;36701;51.798;19.474;2022-12-20T04:43:48;25.52;;;8.73;;
50733;SDS011;36701;51.798;19.474;2022-12-20T04:46:17;22.05;;;8.98;;
50733;SDS011;36701;51.798;19.474;2022-12-20T04:48:46;16.58;;;7.75;;
50733;SDS011;36701;51.798;19.474;2022-12-20T04:51:13;16.73;;;6.57;;
50733;SDS011;36701;51.798;19.474;2022-12-20T04:53:40;33.35;;;10.98;;
50733;SDS011;36701;51.798;19.474;2022-12-20T04:56:27;29.90;;;9.23;;
50733;SDS011;36701;51.798;19.474;2022-12-20T04:58:55;24.55;;;9.02;;
50733;SDS011;36701;51.798;19.474;2022-12-20T05:01:24;22.95;;;9.35;;
50733;SDS011;36701;51.798;19.474;2022-12-20T05:03:51;25.12;;;10.07;;
50733;SDS011;36701;51.798;19.474;2022-12-20T05:06:18;22.87;;;9.05;;
50733;SDS011;36701;51.798;19.474;2022-12-20T05:08:45;37.97;;;13.05;;
50733;SDS011;36701;51.798;19.474;2022-12-20T05:11:13;28.83;;;11.68;;
50733;SDS011;36701;51.798;19.474;2022-12-20T05:13:46;30.88;;;9.98;;
50733;SDS011;36701;51.798;19.474;2022-12-20T05:16:14;27.55;;;11.15;;
50733;SDS011;36701;51.798;19.474;2022-12-20T05:18:42;20.45;;;6.97;;
50733;SDS011;36701;51.798;19.474;2022-12-20T05:21:09;25.42;;;10.15;;
50733;SDS011;36701;51.798;19.474;2022-12-20T05:23:54;29.25;;;10.77;;
50733;SDS011;36701;51.798;19.474;2022-12-20T05:26:41;33.08;;;12.00;;
50733;SDS011;36701;51.798;19.474;2022-12-20T05:29:08;31.37;;;12.32;;
50733;SDS011;36701;51.798;19.474;2022-12-20T05:31:34;24.20;;;12.32;;
50733;SDS011;36701;51.798;19.474;2022-12-20T05:34:02;17.25;;;8.05;;
50733;SDS011;36701;51.798;19.474;2022-12-20T05:36:29;31.35;;;13.57;;
50733;SDS011;36701;51.798;19.474;2022-12-20T05:38:55;26.42;;;10.07;;
50733;SDS011;36701;51.798;19.474;2022-12-20T05:41:22;17.60;;;8.35;;
50733;SDS011;36701;51.798;19.474;2022-12-20T05:43:49;24.40;;;9.10;;
50733;SDS011;36701;51.798;19.474;2022-12-20T05:46:16;29.23;;;11.12;;
50733;SDS011;36701;51.798;19.474;2022-12-20T05:48:45;25.58;;;7.87;;
50733;SDS011;36701;51.798;19.474;2022-12-20T05:51:12;22.58;;;9.70;;
50733;SDS011;36701;51.798;19.474;2022-12-20T05:53:39;18.65;;;7.35;;
50733;SDS011;36701;51.798;19.474;2022-12-20T05:56:06;24.77;;;8.80;;
50733;SDS011;36701;51.798;19.474;2022-12-20T05:58:33;28.08;;;10.95;;
50733;SDS011;36701;51.798;19.474;2022-12-20T06:01:06;21.35;;;8.45;;
50733;SDS011;36701;51.798;19.474;2022-12-20T06:03:34;31.35;;;12.30;;
50733;SDS011;36701;51.798;19.474;2022-12-20T06:06:02;25.27;;;11.60;;
50733;SDS011;36701;51.798;19.474;2022-12-20T06:08:29;25.55;;;10.07;;
50733;SDS011;36701;51.798;19.474;2022-12-20T06:10:56;23.67;;;10.73;;
50733;SDS011;36701;51.798;19.474;2022-12-20T06:13:23;27.60;;;10.18;;
50733;SDS011;36701;51.798;19.474;2022-12-20T06:15:50;22.92;;;8.02;;
50733;SDS011;36701;51.798;19.474;2022-12-20T06:18:18;25.48;;;10.20;;
50733;SDS011;36701;51.798;19.474;2022-12-20T06:20:49;31.77;;;11.88;;
50733;SDS011;36701;51.798;19.474;2022-12-20T06:23:17;27.80;;;11.25;;
50733;SDS011;36701;51.798;19.474;2022-12-20T06:25:45;26.52;;;10.27;;
50733;SDS011;36701;51.798;19.474;2022-12-20T06:28:11;23.75;;;10.80;;
50733;SDS011;36701;51.798;19.474;2022-12-20T06:30:38;23.87;;;10.55;;
50733;SDS011;36701;51.798;19.474;2022-12-20T06:33:04;29.02;;;11.40;;
50733;SDS011;36701;51.798;19.474;2022-12-20T06:35:31;25.15;;;10.52;;
50733;SDS011;36701;51.798;19.474;2022-12-20T06:37:58;22.65;;;9.00;;
50733;SDS011;36701;51.798;19.474;2022-12-20T06:40:24;22.80;;;8.50;;
50733;SDS011;36701;51.798;19.474;2022-12-20T06:42:51;21.17;;;10.63;;
50733;SDS011;36701;51.798;19.474;2022-12-20T06:45:18;28.80;;;10.57;;
50733;SDS011;36701;51.798;19.474;2022-12-20T06:47:45;35.80;;;11.43;;
50733;SDS011;36701;51.798;19.474;2022-12-20T06:50:11;29.23;;;10.60;;
50733;SDS011;36701;51.798;19.474;2022-12-20T06:52:38;31.55;;;11.63;;
50733;SDS011;36701;51.798;19.474;2022-12-20T06:55:05;20.67;;;9.73;;
50733;SDS011;36701;51.798;19.474;2022-12-20T06:57:33;21.45;;;9.95;;
50733;SDS011;36701;51.798;19.474;2022-12-20T07:00:00;28.55;;;9.88;;
50733;SDS011;36701;51.798;19.474;2022-12-20T07:02:27;20.48;;;8.20;;
50733;SDS011;36701;51.798;19.474;2022-12-20T07:04:54;21.35;;;9.23;;
50733;SDS011;36701;51.798;19.474;2022-12-20T07:07:20;28.95;;;10.80;;
50733;SDS011;36701;51.798;19.474;2022-12-20T07:09:47;27.73;;;10.05;;
50733;SDS011;36701;51.798;19.474;2022-12-20T07:12:13;29.08;;;11.40;;
50733;SDS011;36701;51.798;19.474;2022-12-20T07:14:40;22.10;;;9.07;;
50733;SDS011;36701;51.798;19.474;2022-12-20T07:17:06;29.17;;;10.30;;
50733;SDS011;36701;51.798;19.474;2022-12-20T07:19:33;33.00;;;11.18;;
50733;SDS011;36701;51.798;19.474;2022-12-20T07:22:01;32.58;;;11.68;;
50733;SDS011;36701;51.798;19.474;2022-12-20T07:24:28;26.75;;;9.98;;
50733;SDS011;36701;51.798;19.474;2022-12-20T07:26:55;25.90;;;10.02;;
50733;SDS011;36701;51.798;19.474;2022-12-20T07:29:21;13.40;;;7.70;;
50733;SDS011;36701;51.798;19.474;2022-12-20T07:31:48;18.25;;;7.90;;
50733;SDS011;36701;51.798;19.474;2022-12-20T07:34:14;36.00;;;13.20;;
50733;SDS011;36701;51.798;19.474;2022-12-20T07:36:40;24.45;;;11.45;;
50733;SDS011;36701;51.798;19.474;2022-12-20T07:39:07;39.22;;;15.75;;
50733;SDS011;36701;51.798;19.474;2022-12-20T07:41:34;26.20;;;11.68;;
50733;SDS011;36701;51.798;19.474;2022-12-20T07:44:01;34.33;;;12.45;;
50733;SDS011;36701;51.798;19.474;2022-12-20T07:46:28;35.78;;;14.05;;
50733;SDS011;36701;51.798;19.474;2022-12-20T07:48:55;25.00;;;10.55;;
50733;SDS011;36701;51.798;19.474;2022-12-20T07:53:58;20.25;;;8.88;;
50733;SDS011;36701;51.798;19.474;2022-12-20T07:59:10;30.10;;;12.82;;
50733;SDS011;36701;51.798;19.474;2022-12-20T08:01:41;28.50;;;10.95;;
50733;SDS011;36701;51.798;19.474;2022-12-20T08:04:11;37.42;;;13.95;;
50733;SDS011;36701;51.798;19.474;2022-12-20T08:06:44;30.23;;;10.70;;
50733;SDS011;36701;51.798;19.474;2022-12-20T08:09:11;32.20;;;11.77;;
50733;SDS011;36701;51.798;19.474;2022-12-20T08:11:40;27.90;;;12.57;;
50733;SDS011;36701;51.798;19.474;2022-12-20T08:14:09;29.63;;;11.70;;
50733;SDS011;36701;51.798;19.474;2022-12-20T08:16:36;27.73;;;11.80;;
50733;SDS011;36701;51.798;19.474;2022-12-20T08:19:03;29.40;;;13.48;;
50733;SDS011;36701;51.798;19.474;2022-12-20T08:21:29;20.20;;;9.48;;
50733;SDS011;36701;51.798;19.474;2022-12-20T08:23:56;30.40;;;11.55;;
50733;SDS011;36701;51.798;19.474;2022-12-20T08:26:22;28.40;;;10.32;;
50733;SDS011;36701;51.798;19.474;2022-12-20T08:28:50;35.88;;;12.40;;
50733;SDS011;36701;51.798;19.474;2022-12-20T08:31:16;26.55;;;11.32;;
50733;SDS011;36701;51.798;19.474;2022-12-20T08:33:43;29.40;;;13.10;;
50733;SDS011;36701;51.798;19.474;2022-12-20T08:36:10;33.38;;;13.73;;
50733;SDS011;36701;51.798;19.474;2022-12-20T08:38:38;29.52;;;10.85;;
50733;SDS011;36701;51.798;19.474;2022-12-20T08:41:09;20.30;;;10.20;;
50733;SDS011;36701;51.798;19.474;2022-12-20T08:43:37;27.50;;;12.37;;
50733;SDS011;36701;51.798;19.474;2022-12-20T08:46:04;25.33;;;11.60;;
50733;SDS011;36701;51.798;19.474;2022-12-20T08:48:32;32.10;;;12.80;;
50733;SDS011;36701;51.798;19.474;2022-12-20T08:50:59;28.02;;;11.55;;
50733;SDS011;36701;51.798;19.474;2022-12-20T08:53:28;25.42;;;12.07;;
50733;SDS011;36701;51.798;19.474;2022-12-20T08:56:11;23.38;;;9.02;;
50733;SDS011;36701;51.798;19.474;2022-12-20T08:58:41;26.05;;;11.68;;
50733;SDS011;36701;51.798;19.474;2022-12-20T09:01:10;28.70;;;11.20;;
50733;SDS011;36701;51.798;19.474;2022-12-20T09:03:39;32.17;;;13.23;;
50733;SDS011;36701;51.798;19.474;2022-12-20T09:06:10;23.05;;;8.95;;
50733;SDS011;36701;51.798;19.474;2022-12-20T09:08:38;33.78;;;13.48;;
50733;SDS011;36701;51.798;19.474;2022-12-20T09:11:06;37.85;;;11.73;;
50733;SDS011;36701;51.798;19.474;2022-12-20T09:13:35;26.20;;;12.20;;
50733;SDS011;36701;51.798;19.474;2022-12-20T09:16:01;30.23;;;12.80;;
50733;SDS011;36701;51.798;19.474;2022-12-20T09:18:30;29.80;;;12.23;;
50733;SDS011;36701;51.798;19.474;2022-12-20T09:20:59;25.20;;;11.32;;
50733;SDS011;36701;51.798;19.474;2022-12-20T09:23:27;37.30;;;12.98;;
50733;SDS011;36701;51.798;19.474;2022-12-20T09:26:04;32.55;;;12.75;;
50733;SDS011;36701;51.798;19.474;2022-12-20T09:28:33;24.67;;;11.52;;
50733;SDS011;36701;51.798;19.474;2022-12-20T09:31:01;34.72;;;13.95;;
50733;SDS011;36701;51.798;19.474;2022-12-20T09:33:29;26.90;;;12.02;;
50733;SDS011;36701;51.798;19.474;2022-12-20T09:35:57;30.20;;;11.15;;
50733;SDS011;36701;51.798;19.474;2022-12-20T09:38:25;31.15;;;13.52;;
50733;SDS011;36701;51.798;19.474;2022-12-20T09:40:54;27.92;;;10.68;;
50733;SDS011;36701;51.798;19.474;2022-12-20T09:43:23;32.20;;;10.52;;
50733;SDS011;36701;51.798;19.474;2022-12-20T09:45:51;22.37;;;8.88;;
50733;SDS011;36701;51.798;19.474;2022-12-20T09:48:29;29.33;;;8.98;;
50733;SDS011;36701;51.798;19.474;2022-12-20T09:56:22;35.60;;;13.35;;
50733;SDS011;36701;51.798;19.474;2022-12-20T10:01:44;29.37;;;11.75;;
50733;SDS011;36701;51.798;19.474;2022-12-20T10:04:20;31.42;;;11.80;;
50733;SDS011;36701;51.798;19.474;2022-12-20T10:17:49;28.15;;;11.57;;
50733;SDS011;36701;51.798;19.474;2022-12-20T10:23:16;27.23;;;12.05;;
50733;SDS011;36701;51.798;19.474;2022-12-20T10:25:49;32.25;;;13.57;;
50733;SDS011;36701;51.798;19.474;2022-12-20T10:28:17;34.47;;;14.18;;
50733;SDS011;36701;51.798;19.474;2022-12-20T10:30:49;30.23;;;13.27;;
50733;SDS011;36701;51.798;19.474;2022-12-20T10:33:19;33.42;;;13.85;;
50733;SDS011;36701;51.798;19.474;2022-12-20T10:35:47;29.40;;;13.82;;
50733;SDS011;36701;51.798;19.474;2022-12-20T10:38:15;24.23;;;11.00;;
50733;SDS011;36701;51.798;19.474;2022-12-20T10:40:59;35.67;;;14.55;;
50733;SDS011;36701;51.798;19.474;2022-12-20T10:43:27;36.03;;;13.88;;
50733;SDS011;36701;51.798;19.474;2022-12-20T10:46:08;33.17;;;13.62;;
50733;SDS011;36701;51.798;19.474;2022-12-20T10:48:39;29.58;;;13.23;;
50733;SDS011;36701;51.798;19.474;2022-12-20T10:53:34;32.50;;;14.00;;
50733;SDS011;36701;51.798;19.474;2022-12-20T10:56:11;38.33;;;14.30;;
50733;SDS011;36701;51.798;19.474;2022-12-20T11:01:18;16.52;;;8.65;;
50733;SDS011;36701;51.798;19.474;2022-12-20T11:06:20;22.98;;;11.02;;
50733;SDS011;36701;51.798;19.474;2022-12-20T11:08:48;20.55;;;10.50;;
50733;SDS011;36701;51.798;19.474;2022-12-20T11:11:17;31.27;;;12.35;;
50733;SDS011;36701;51.798;19.474;2022-12-20T11:13:44;25.90;;;11.50;;
50733;SDS011;36701;51.798;19.474;2022-12-20T11:21:44;29.15;;;11.25;;
50733;SDS011;36701;51.798;19.474;2022-12-20T11:37:33;25.20;;;12.18;;
50733;SDS011;36701;51.798;19.474;2022-12-20T11:48:38;41.72;;;15.63;;
50733;SDS011;36701;51.798;19.474;2022-12-20T11:56:52;28.40;;;11.85;;
50733;SDS011;36701;51.798;19.474;2022-12-20T12:05:05;26.90;;;12.02;;
50733;SDS011;36701;51.798;19.474;2022-12-20T12:07:41;33.25;;;13.32;;
50733;SDS011;36701;51.798;19.474;2022-12-20T12:10:13;26.50;;;11.10;;
50733;SDS011;36701;51.798;19.474;2022-12-20T12:12:44;38.47;;;13.35;;
50733;SDS011;36701;51.798;19.474;2022-12-20T12:15:30;39.65;;;16.17;;
50733;SDS011;36701;51.798;19.474;2022-12-20T12:18:08;22.20;;;9.82;;
50733;SDS011;36701;51.798;19.474;2022-12-20T12:20:41;28.62;;;12.27;;
50733;SDS011;36701;51.798;19.474;2022-12-20T12:23:17;40.67;;;14.98;;
50733;SDS011;36701;51.798;19.474;2022-12-20T12:26:12;21.00;;;9.43;;
50733;SDS011;36701;51.798;19.474;2022-12-20T12:28:47;24.30;;;10.40;;
50733;SDS011;36701;51.798;19.474;2022-12-20T12:31:22;27.67;;;10.48;;
50733;SDS011;36701;51.798;19.474;2022-12-20T12:33:59;24.23;;;12.07;;
50733;SDS011;36701;51.798;19.474;2022-12-20T12:42:18;32.28;;;12.43;;
50733;SDS011;36701;51.798;19.474;2022-12-20T12:44:59;38.38;;;14.65;;
50733;SDS011;36701;51.798;19.474;2022-12-20T12:47:35;40.22;;;14.43;;
50733;SDS011;36701;51.798;19.474;2022-12-20T12:50:17;42.58;;;16.12;;
50733;SDS011;36701;51.798;19.474;2022-12-20T12:52:58;22.15;;;10.45;;
50733;SDS011;36701;51.798;19.474;2022-12-20T12:55:35;30.83;;;13.05;;
50733;SDS011;36701;51.798;19.474;2022-12-20T13:00:52;30.37;;;11.20;;
50733;SDS011;36701;51.798;19.474;2022-12-20T13:11:35;43.25;;;15.95;;
50733;SDS011;36701;51.798;19.474;2022-12-20T13:21:56;37.20;;;15.80;;
50733;SDS011;36701;51.798;19.474;2022-12-20T13:24:34;34.72;;;13.13;;
50733;SDS011;36701;51.798;19.474;2022-12-20T13:27:02;19.60;;;7.95;;
50733;SDS011;36701;51.798;19.474;2022-12-20T13:29:50;33.08;;;14.10;;
50733;SDS011;36701;51.798;19.474;2022-12-20T13:40:22;40.47;;;15.13;;
50733;SDS011;36701;51.798;19.474;2022-12-20T13:42:56;41.42;;;15.80;;
50733;SDS011;36701;51.798;19.474;2022-12-20T13:45:24;48.85;;;17.08;;
50733;SDS011;36701;51.798;19.474;2022-12-20T13:47:52;45.97;;;17.12;;
50733;SDS011;36701;51.798;19.474;2022-12-20T13:50:27;40.03;;;15.98;;
50733;SDS011;36701;51.798;19.474;2022-12-20T13:52:58;40.42;;;16.98;;
50733;SDS011;36701;51.798;19.474;2022-12-20T13:55:37;40.53;;;15.95;;
50733;SDS011;36701;51.798;19.474;2022-12-20T13:58:11;36.80;;;15.80;;
50733;SDS011;36701;51.798;19.474;2022-12-20T14:00:43;47.75;;;15.63;;
50733;SDS011;36701;51.798;19.474;2022-12-20T14:03:24;44.70;;;17.12;;
50733;SDS011;36701;51.798;19.474;2022-12-20T14:06:02;45.38;;;15.48;;
50733;SDS011;36701;51.798;19.474;2022-12-20T14:08:35;40.33;;;17.08;;
50733;SDS011;36701;51.798;19.474;2022-12-20T14:11:11;42.40;;;15.43;;
50733;SDS011;36701;51.798;19.474;2022-12-20T14:13:40;38.72;;;16.67;;
50733;SDS011;36701;51.798;19.474;2022-12-20T14:16:13;33.53;;;13.98;;
50733;SDS011;36701;51.798;19.474;2022-12-20T14:18:48;38.70;;;13.68;;
50733;SDS011;36701;51.798;19.474;2022-12-20T14:21:36;36.20;;;16.02;;
50733;SDS011;36701;51.798;19.474;2022-12-20T14:24:10;28.27;;;12.43;;
50733;SDS011;36701;51.798;19.474;2022-12-20T14:26:42;38.83;;;14.18;;
50733;SDS011;36701;51.798;19.474;2022-12-20T14:29:15;38.78;;;15.25;;
50733;SDS011;36701;51.798;19.474;2022-12-20T14:31:44;38.67;;;16.17;;
50733;SDS011;36701;51.798;19.474;2022-12-20T14:36:46;28.05;;;13.02;;
50733;SDS011;36701;51.798;19.474;2022-12-20T14:39:24;18.52;;;8.50;;
50733;SDS011;36701;51.798;19.474;2022-12-20T14:44:25;33.88;;;13.13;;
50733;SDS011;36701;51.798;19.474;2022-12-20T14:49:48;31.53;;;13.37;;
50733;SDS011;36701;51.798;19.474;2022-12-20T14:52:37;27.15;;;12.88;;
50733;SDS011;36701;51.798;19.474;2022-12-20T14:57:52;43.00;;;16.02;;
50733;SDS011;36701;51.798;19.474;2022-12-20T15:00:22;37.25;;;14.35;;
50733;SDS011;36701;51.798;19.474;2022-12-20T15:08:11;40.90;;;14.23;;
50733;SDS011;36701;51.798;19.474;2022-12-20T15:10:46;37.85;;;14.82;;
50733;SDS011;36701;51.798;19.474;2022-12-20T15:13:19;51.08;;;16.80;;
50733;SDS011;36701;51.798;19.474;2022-12-20T15:15:50;34.35;;;15.10;;
50733;SDS011;36701;51.798;19.474;2022-12-20T15:18:18;43.67;;;16.73;;
50733;SDS011;36701;51.798;19.474;2022-12-20T15:21:05;40.45;;;14.32;;
50733;SDS011;36701;51.798;19.474;2022-12-20T15:23:53;42.05;;;16.80;;
50733;SDS011;36701;51.798;19.474;2022-12-20T15:26:22;40.10;;;16.30;;
50733;SDS011;36701;51.798;19.474;2022-12-20T15:28:51;34.50;;;13.05;;
50733;SDS011;36701;51.798;19.474;2022-12-20T15:31:24;44.40;;;18.42;;
50733;SDS011;36701;51.798;19.474;2022-12-20T15:33:53;41.75;;;17.45;;
50733;SDS011;36701;51.798;19.474;2022-12-20T15:36:23;45.08;;;20.05;;
50733;SDS011;36701;51.798;19.474;2022-12-20T15:38:55;48.90;;;18.65;;
50733;SDS011;36701;51.798;19.474;2022-12-20T15:44:09;49.10;;;18.95;;
50733;SDS011;36701;51.798;19.474;2022-12-20T15:46:39;44.20;;;17.20;;
50733;SDS011;36701;51.798;19.474;2022-12-20T15:49:08;35.90;;;14.93;;
50733;SDS011;36701;51.798;19.474;2022-12-20T15:51:39;48.47;;;20.23;;
50733;SDS011;36701;51.798;19.474;2022-12-20T15:57:11;38.10;;;15.57;;
50733;SDS011;36701;51.798;19.474;2022-12-20T15:59:39;46.60;;;17.45;;
50733;SDS011;36701;51.798;19.474;2022-12-20T16:02:23;52.30;;;18.42;;
50733;SDS011;36701;51.798;19.474;2022-12-20T16:04:52;46.60;;;19.55;;
50733;SDS011;36701;51.798;19.474;2022-12-20T16:07:20;38.28;;;15.65;;
50733;SDS011;36701;51.798;19.474;2022-12-20T16:09:47;42.15;;;15.93;;
50733;SDS011;36701;51.798;19.474;2022-12-20T16:12:18;54.28;;;21.42;;
50733;SDS011;36701;51.798;19.474;2022-12-20T16:14:48;51.00;;;17.92;;
50733;SDS011;36701;51.798;19.474;2022-12-20T16:17:16;56.65;;;20.60;;
50733;SDS011;36701;51.798;19.474;2022-12-20T16:19:43;50.97;;;20.15;;
50733;SDS011;36701;51.798;19.474;2022-12-20T16:22:15;47.17;;;16.48;;
50733;SDS011;36701;51.798;19.474;2022-12-20T16:24:44;45.17;;;18.00;;
50733;SDS011;36701;51.798;19.474;2022-12-20T16:27:11;41.95;;;16.70;;
50733;SDS011;36701;51.798;19.474;2022-12-20T16:29:37;48.33;;;19.12;;
50733;SDS011;36701;51.798;19.474;2022-12-20T16:32:10;50.70;;;20.77;;
50733;SDS011;36701;51.798;19.474;2022-12-20T16:34:40;50.50;;;20.85;;
50733;SDS011;36701;51.798;19.474;2022-12-20T16:37:07;48.63;;;18.60;;
50733;SDS011;36701;51.798;19.474;2022-12-20T16:39:33;59.28;;;20.77;;
50733;SDS011;36701;51.798;19.474;2022-12-20T16:42:00;50.67;;;18.45;;
50733;SDS011;36701;51.798;19.474;2022-12-20T16:44:27;50.25;;;18.05;;
50733;SDS011;36701;51.798;19.474;2022-12-20T16:46:53;52.20;;;20.98;;
50733;SDS011;36701;51.798;19.474;2022-12-20T16:49:20;54.13;;;20.90;;
50733;SDS011;36701;51.798;19.474;2022-12-20T16:51:47;54.08;;;19.10;;
50733;SDS011;36701;51.798;19.474;2022-12-20T16:54:15;44.20;;;18.37;;
50733;SDS011;36701;51.798;19.474;2022-12-20T16:56:44;49.53;;;18.83;;
50733;SDS011;36701;51.798;19.474;2022-12-20T16:59:12;49.78;;;18.40;;
50733;SDS011;36701;51.798;19.474;2022-12-20T17:01:40;49.80;;;19.02;;
50733;SDS011;36701;51.798;19.474;2022-12-20T17:04:10;51.45;;;19.45;;
50733;SDS011;36701;51.798;19.474;2022-12-20T17:06:40;41.35;;;17.45;;
50733;SDS011;36701;51.798;19.474;2022-12-20T17:09:07;40.38;;;17.90;;
50733;SDS011;36701;51.798;19.474;2022-12-20T17:11:34;52.42;;;19.58;;
50733;SDS011;36701;51.798;19.474;2022-12-20T17:14:01;54.75;;;19.73;;
50733;SDS011;36701;51.798;19.474;2022-12-20T17:16:28;54.63;;;19.70;;
50733;SDS011;36701;51.798;19.474;2022-12-20T17:18:55;44.90;;;18.45;;
50733;SDS011;36701;51.798;19.474;2022-12-20T17:21:31;48.10;;;18.10;;
50733;SDS011;36701;51.798;19.474;2022-12-20T17:24:01;53.55;;;20.37;;
50733;SDS011;36701;51.798;19.474;2022-12-20T17:26:31;43.28;;;17.80;;
50733;SDS011;36701;51.798;19.474;2022-12-20T17:28:58;45.55;;;16.90;;
50733;SDS011;36701;51.798;19.474;2022-12-20T17:31:27;53.28;;;19.30;;
50733;SDS011;36701;51.798;19.474;2022-12-20T17:34:05;56.35;;;16.70;;
50733;SDS011;36701;51.798;19.474;2022-12-20T17:36:40;58.65;;;22.27;;
50733;SDS011;36701;51.798;19.474;2022-12-20T17:39:07;51.17;;;21.42;;
50733;SDS011;36701;51.798;19.474;2022-12-20T17:41:34;32.10;;;15.57;;
50733;SDS011;36701;51.798;19.474;2022-12-20T17:44:01;45.25;;;20.17;;
50733;SDS011;36701;51.798;19.474;2022-12-20T17:46:29;48.47;;;20.23;;
50733;SDS011;36701;51.798;19.474;2022-12-20T17:48:56;52.95;;;18.95;;
50733;SDS011;36701;51.798;19.474;2022-12-20T17:51:25;40.33;;;16.75;;
50733;SDS011;36701;51.798;19.474;2022-12-20T17:53:56;43.50;;;16.90;;
50733;SDS011;36701;51.798;19.474;2022-12-20T17:56:25;48.72;;;18.83;;
50733;SDS011;36701;51.798;19.474;2022-12-20T17:58:54;59.28;;;19.42;;
50733;SDS011;36701;51.798;19.474;2022-12-20T18:01:22;41.30;;;16.90;;
50733;SDS011;36701;51.798;19.474;2022-12-20T18:03:52;51.22;;;20.58;;
50733;SDS011;36701;51.798;19.474;2022-12-20T18:06:20;43.35;;;17.73;;
50733;SDS011;36701;51.798;19.474;2022-12-20T18:08:47;47.78;;;19.45;;
50733;SDS011;36701;51.798;19.474;2022-12-20T18:11:16;48.55;;;16.95;;
50733;SDS011;36701;51.798;19.474;2022-12-20T18:13:44;45.28;;;17.58;;
50733;SDS011;36701;51.798;19.474;2022-12-20T18:16:13;38.65;;;15.82;;
50733;SDS011;36701;51.798;19.474;2022-12-20T18:18:45;43.50;;;17.45;;
50733;SDS011;36701;51.798;19.474;2022-12-20T18:21:13;54.10;;;16.73;;
50733;SDS011;36701;51.798;19.474;2022-12-20T18:23:42;52.90;;;18.70;;
50733;SDS011;36701;51.798;19.474;2022-12-20T18:28:39;52.67;;;19.77;;
50733;SDS011;36701;51.798;19.474;2022-12-20T18:31:12;51.28;;;18.42;;
50733;SDS011;36701;51.798;19.474;2022-12-20T18:33:45;47.78;;;19.48;;